createdAt,value
2018-10-01T00:00:22.462Z,8.20
2018-10-01T00:01:22.366Z,9.40
2018-10-01T00:02:23.333Z,9.00
2018-10-01T00:03:22.383Z,10.00
2018-10-01T00:04:22.144Z,8.90
2018-10-01T00:05:22.043Z,7.50
2018-10-01T00:06:21.978Z,8.80
2018-10-01T00:07:21.896Z,7.90
2018-10-01T00:08:21.798Z,10.20
2018-10-01T00:09:21.713Z,9.80
2018-10-01T00:12:03.685Z,9.50
2018-10-01T00:13:03.636Z,11.10
2018-10-01T00:14:03.534Z,9.50
2018-10-01T00:15:03.453Z,9.30
2018-10-01T00:16:03.369Z,8.10
2018-10-01T00:18:45.209Z,13.50
2018-10-01T00:19:45.123Z,9.70
2018-10-01T00:20:45.044Z,10.50
2018-10-01T00:21:44.970Z,10.30
2018-10-01T00:22:44.863Z,11.80
2018-10-01T00:23:45.912Z,9.40
2018-10-01T00:24:44.708Z,12.70
2018-10-01T00:27:26.699Z,10.10
2018-10-01T00:28:27.630Z,7.90
2018-10-01T00:29:26.551Z,9.00
2018-10-01T00:30:26.458Z,11.20
2018-10-01T00:31:26.381Z,9.90
2018-10-01T00:32:26.293Z,11.40
2018-10-01T00:33:26.247Z,10.10
2018-10-01T00:34:26.158Z,10.30
2018-10-01T00:35:26.055Z,8.60
2018-10-01T00:36:25.972Z,10.70
2018-10-01T00:37:25.908Z,10.20
2018-10-01T00:38:26.869Z,7.00
2018-10-01T00:39:25.742Z,9.30
2018-10-01T00:40:25.651Z,12.50
2018-10-01T00:41:25.558Z,8.20
2018-10-01T00:42:25.487Z,10.20
2018-10-01T00:43:25.389Z,8.90
2018-10-01T00:44:25.343Z,12.80
2018-10-01T00:45:25.235Z,11.60
2018-10-01T00:48:07.195Z,10.20
2018-10-01T00:49:07.136Z,8.00
2018-10-01T00:50:07.026Z,11.60
2018-10-01T00:52:49.196Z,11.00
2018-10-01T00:53:49.145Z,10.50
2018-10-01T00:54:49.063Z,13.70
2018-10-01T00:55:48.974Z,11.60
2018-10-01T00:56:48.874Z,9.40
2018-10-01T00:57:48.791Z,8.80
2018-10-01T00:58:48.707Z,10.10
2018-10-01T00:59:49.662Z,11.00
2018-10-01T01:00:48.545Z,10.10
2018-10-01T01:01:48.471Z,12.10
2018-10-01T01:02:48.390Z,9.90
2018-10-01T01:03:48.318Z,9.20
2018-10-01T01:04:48.236Z,12.40
2018-10-01T01:05:48.148Z,9.60
2018-10-01T01:06:48.057Z,9.50
2018-10-01T01:09:30.234Z,11.40
2018-10-01T01:12:12.203Z,9.90
2018-10-01T01:14:54.223Z,11.90
2018-10-01T01:15:54.126Z,9.30
2018-10-01T01:16:54.041Z,10.10
2018-10-01T01:17:53.965Z,13.30
2018-10-01T01:18:53.883Z,11.80
2018-10-01T01:19:53.844Z,10.10
2018-10-01T01:20:53.716Z,12.00
2018-10-01T01:21:53.646Z,9.80
2018-10-01T01:22:53.579Z,12.20
2018-10-01T01:23:53.475Z,11.30
2018-10-01T01:24:53.400Z,11.10
2018-10-01T01:25:53.344Z,10.90
2018-10-01T01:26:53.222Z,10.50
2018-10-01T01:27:53.163Z,11.70
2018-10-01T01:28:53.077Z,9.00
2018-10-01T01:29:53.008Z,10.10
2018-10-01T01:30:52.934Z,10.20
2018-10-01T01:31:52.837Z,9.80
2018-10-01T01:32:52.752Z,10.80
2018-10-01T01:35:34.748Z,9.50
2018-10-01T01:36:34.639Z,12.60
2018-10-01T01:37:34.554Z,13.00
2018-10-01T01:40:16.708Z,10.00
2018-10-01T01:41:16.658Z,11.10
2018-10-01T01:42:16.537Z,9.70
2018-10-01T01:43:16.475Z,11.10
2018-10-01T01:44:16.375Z,13.90
2018-10-01T01:45:16.328Z,11.20
2018-10-01T01:46:16.234Z,11.80
2018-10-01T01:47:16.148Z,11.20
2018-10-01T01:48:16.071Z,10.70
2018-10-01T01:49:15.985Z,9.60
2018-10-01T01:50:15.898Z,9.40
2018-10-01T01:51:16.841Z,11.20
2018-10-01T01:52:15.738Z,10.30
2018-10-01T01:53:15.659Z,10.30
2018-10-01T01:54:15.574Z,11.10
2018-10-01T01:55:15.504Z,11.50
2018-10-01T01:56:15.603Z,11.60
2018-10-01T01:57:15.346Z,11.00
2018-10-01T01:58:15.252Z,8.50
2018-10-01T02:00:57.207Z,12.00
2018-10-01T02:01:57.176Z,12.60
2018-10-01T02:02:57.049Z,9.80
2018-10-01T02:03:56.982Z,10.10
2018-10-01T02:04:56.898Z,12.50
2018-10-01T02:05:56.815Z,11.00
2018-10-01T02:06:56.761Z,10.80
2018-10-01T02:07:56.654Z,10.20
2018-10-01T02:08:56.580Z,11.00
2018-10-01T02:09:56.491Z,12.40
2018-10-01T02:10:56.406Z,12.10
2018-10-01T02:11:57.353Z,8.80
2018-10-01T02:12:56.251Z,9.10
2018-10-01T02:13:56.157Z,10.30
2018-10-01T02:14:56.072Z,11.60
2018-10-01T02:17:38.248Z,11.50
2018-10-01T02:18:38.139Z,10.50
2018-10-01T02:19:38.061Z,10.40
2018-10-01T02:20:37.977Z,12.50
2018-10-01T02:21:37.894Z,11.20
2018-10-01T02:22:37.845Z,12.10
2018-10-01T02:23:37.746Z,12.50
2018-10-01T02:24:37.661Z,10.50
2018-10-01T02:25:37.576Z,10.50
2018-10-01T02:28:19.735Z,11.00
2018-10-01T02:29:19.642Z,11.50
2018-10-01T02:30:19.573Z,12.80
2018-10-01T02:31:19.482Z,15.40
2018-10-01T02:32:19.423Z,12.60
2018-10-01T02:35:01.230Z,11.50
2018-10-01T02:36:01.154Z,14.50
2018-10-01T02:37:01.070Z,10.20
2018-10-01T02:38:01.021Z,11.80
2018-10-01T02:39:00.898Z,10.50
2018-10-01T02:40:00.827Z,10.00
2018-10-01T02:41:00.740Z,10.20
2018-10-01T02:42:00.664Z,12.20
2018-10-01T02:43:00.668Z,12.50
2018-10-01T02:44:01.530Z,10.30
2018-10-01T02:45:00.414Z,10.60
2018-10-01T02:47:42.258Z,10.50
2018-10-01T02:48:43.167Z,10.90
2018-10-01T02:49:42.063Z,11.40
2018-10-01T02:52:24.227Z,11.70
2018-10-01T02:53:25.178Z,11.70
2018-10-01T02:54:24.060Z,11.00
2018-10-01T02:55:23.981Z,10.00
2018-10-01T02:56:23.928Z,13.60
2018-10-01T02:57:23.828Z,13.20
2018-10-01T02:58:23.755Z,14.50
2018-10-01T02:59:23.663Z,11.90
2018-10-01T03:00:23.590Z,9.90
2018-10-01T03:01:23.495Z,10.90
2018-10-01T03:02:23.406Z,13.70
2018-10-01T03:03:23.510Z,12.10
2018-10-01T03:04:23.255Z,11.30
2018-10-01T03:05:23.189Z,14.60
2018-10-01T03:06:23.102Z,12.00
2018-10-01T03:07:23.015Z,11.90
2018-10-01T03:08:22.938Z,12.10
2018-10-01T03:09:23.861Z,11.70
2018-10-01T03:10:22.774Z,14.20
2018-10-01T03:11:22.686Z,12.50
2018-10-01T03:12:22.715Z,11.50
2018-10-01T03:15:04.762Z,10.50
2018-10-01T03:16:04.653Z,10.10
2018-10-01T03:17:04.568Z,9.50
2018-10-01T03:18:04.528Z,12.20
2018-10-01T03:19:04.418Z,12.00
2018-10-01T03:20:04.355Z,12.20
2018-10-01T03:21:04.259Z,14.30
2018-10-01T03:22:04.185Z,12.80
2018-10-01T03:23:04.079Z,13.50
2018-10-01T03:25:46.255Z,12.90
2018-10-01T03:28:28.235Z,9.80
2018-10-01T03:29:28.200Z,10.10
2018-10-01T03:30:28.069Z,14.50
2018-10-01T03:31:28.003Z,10.90
2018-10-01T03:32:27.913Z,14.50
2018-10-01T03:35:10.023Z,12.60
2018-10-01T03:36:10.365Z,10.20
2018-10-01T03:37:09.572Z,12.70
2018-10-01T03:39:51.756Z,9.90
2018-10-01T03:40:51.663Z,12.10
2018-10-01T03:41:51.573Z,12.40
2018-10-01T03:44:33.735Z,12.20
2018-10-01T03:45:33.682Z,12.00
2018-10-01T03:46:33.572Z,10.90
2018-10-01T03:47:33.510Z,11.10
2018-10-01T03:48:33.420Z,11.80
2018-10-01T03:49:33.343Z,10.40
2018-10-01T03:50:33.278Z,12.90
2018-10-01T03:51:33.177Z,8.30
2018-10-01T03:52:33.106Z,12.40
2018-10-01T03:53:33.011Z,11.30
2018-10-01T03:54:32.937Z,11.60
2018-10-01T03:55:32.854Z,14.70
2018-10-01T03:56:32.758Z,8.80
2018-10-01T03:57:32.710Z,16.00
2018-10-01T03:58:32.592Z,13.40
2018-10-01T03:59:32.526Z,9.90
2018-10-01T04:00:32.489Z,9.60
2018-10-01T04:03:14.746Z,13.30
2018-10-01T04:04:14.663Z,10.90
2018-10-01T04:05:14.578Z,9.50
2018-10-01T04:06:15.538Z,12.30
2018-10-01T04:07:14.432Z,10.30
2018-10-01T04:08:14.342Z,9.80
2018-10-01T04:09:14.254Z,9.30
2018-10-01T04:11:56.265Z,13.70
2018-10-01T04:12:56.165Z,11.00
2018-10-01T04:13:56.084Z,13.00
2018-10-01T04:14:56.016Z,9.50
2018-10-01T04:15:55.915Z,9.40
2018-10-01T04:16:55.869Z,10.60
2018-10-01T04:17:55.754Z,12.40
2018-10-01T04:18:55.675Z,11.70
2018-10-01T04:19:55.604Z,14.30
2018-10-01T04:20:55.518Z,10.50
2018-10-01T04:21:55.470Z,9.50
2018-10-01T04:22:55.462Z,9.70
2018-10-01T04:23:55.280Z,11.80
2018-10-01T04:24:55.192Z,13.80
2018-10-01T04:25:55.103Z,11.90
2018-10-01T04:26:55.045Z,14.20
2018-10-01T04:27:54.944Z,10.20
2018-10-01T04:28:54.868Z,9.50
2018-10-01T04:29:54.802Z,10.90
2018-10-01T04:30:54.712Z,12.60
2018-10-01T04:31:54.642Z,10.80
2018-10-01T04:34:36.740Z,10.80
2018-10-01T04:35:36.681Z,9.30
2018-10-01T04:36:36.609Z,9.50
2018-10-01T04:37:36.516Z,10.50
2018-10-01T04:38:36.423Z,12.30
2018-10-01T04:39:36.351Z,10.30
2018-10-01T04:40:36.280Z,12.20
2018-10-01T04:41:36.190Z,9.60
2018-10-01T04:42:36.114Z,11.30
2018-10-01T04:43:36.019Z,10.60
2018-10-01T04:44:35.935Z,12.50
2018-10-01T04:45:35.868Z,10.80
2018-10-01T04:46:35.815Z,10.50
2018-10-01T04:47:35.717Z,13.20
2018-10-01T04:48:35.624Z,11.90
2018-10-01T04:49:35.533Z,10.50
2018-10-01T04:50:35.445Z,8.60
2018-10-01T04:53:17.779Z,10.80
2018-10-01T04:54:17.678Z,10.40
2018-10-01T04:55:17.593Z,11.40
2018-10-01T04:56:17.520Z,14.80
2018-10-01T04:57:17.445Z,11.80
2018-10-01T04:58:17.498Z,8.90
2018-10-01T04:59:17.276Z,11.90
2018-10-01T05:00:17.188Z,11.60
2018-10-01T05:01:17.126Z,10.60
2018-10-01T05:02:17.044Z,11.80
2018-10-01T05:03:17.145Z,8.90
2018-10-01T05:04:16.957Z,12.30
2018-10-01T05:05:17.355Z,10.40
2018-10-01T05:06:16.829Z,10.00
2018-10-01T05:07:16.608Z,10.00
2018-10-01T05:08:16.562Z,11.80
2018-10-01T05:09:16.452Z,8.90
2018-10-01T05:10:16.516Z,9.60
2018-10-01T05:11:16.285Z,9.10
2018-10-01T05:12:16.209Z,9.20
2018-10-01T05:13:16.146Z,10.50
2018-10-01T05:14:16.061Z,9.20
2018-10-01T05:15:15.964Z,12.30
2018-10-01T05:16:15.881Z,9.20
2018-10-01T05:17:15.803Z,11.30
2018-10-01T05:18:15.738Z,11.90
2018-10-01T05:19:15.662Z,8.70
2018-10-01T05:20:15.566Z,11.50
2018-10-01T05:21:15.482Z,12.50
2018-10-01T05:22:15.409Z,10.80
2018-10-01T05:23:15.324Z,11.80
2018-10-01T05:24:15.279Z,14.20
2018-10-01T05:25:15.179Z,14.20
2018-10-01T05:27:57.257Z,9.10
2018-10-01T05:28:57.213Z,11.30
2018-10-01T05:29:57.132Z,8.40
2018-10-01T05:30:57.030Z,10.20
2018-10-01T05:31:56.947Z,8.90
2018-10-01T05:32:56.863Z,11.10
2018-10-01T05:33:56.808Z,10.50
2018-10-01T05:34:56.736Z,9.80
2018-10-01T05:35:56.623Z,13.10
2018-10-01T05:36:56.545Z,9.40
2018-10-01T05:37:56.619Z,8.80
2018-10-01T05:38:56.412Z,9.20
2018-10-01T05:39:56.343Z,10.10
2018-10-01T05:40:56.210Z,8.40
2018-10-01T05:41:56.125Z,9.30
2018-10-01T05:42:56.056Z,10.20
2018-10-01T05:43:55.957Z,10.50
2018-10-01T05:44:55.909Z,8.90
2018-10-01T05:45:55.835Z,9.20
2018-10-01T05:46:55.737Z,10.00
2018-10-01T05:47:55.637Z,8.70
2018-10-01T05:48:55.581Z,9.40
2018-10-01T05:49:55.514Z,9.30
2018-10-01T05:50:55.431Z,9.40
2018-10-01T05:51:55.322Z,6.80
2018-10-01T05:54:37.311Z,7.10
2018-10-01T05:55:37.225Z,12.80
2018-10-01T05:56:37.130Z,9.40
2018-10-01T05:59:19.269Z,9.70
2018-10-01T06:00:19.200Z,10.60
2018-10-01T06:01:19.136Z,8.70
2018-10-01T06:02:19.051Z,10.40
2018-10-01T06:03:18.942Z,8.70
2018-10-01T06:06:00.794Z,8.00
2018-10-01T06:07:00.698Z,10.70
2018-10-01T06:08:00.614Z,8.60
2018-10-01T06:09:00.531Z,8.30
2018-10-01T06:10:00.459Z,9.00
2018-10-01T06:11:00.382Z,10.40
2018-10-01T06:35:42.818Z,9.40
2018-10-01T06:36:42.776Z,10.50
2018-10-01T06:37:42.635Z,12.10
2018-10-01T06:38:42.533Z,9.60
2018-10-01T06:39:42.473Z,10.60
2018-10-01T06:40:42.372Z,11.40
2018-10-01T06:41:42.382Z,7.50
2018-10-01T06:42:42.237Z,10.50
2018-10-01T06:43:42.124Z,10.70
2018-10-01T06:44:42.044Z,11.90
2018-10-01T06:45:41.967Z,10.90
2018-10-01T06:46:41.876Z,11.00
2018-10-01T06:47:42.831Z,9.40
2018-10-01T06:48:41.722Z,10.90
2018-10-01T06:51:23.778Z,10.20
2018-10-01T06:52:23.707Z,10.40
2018-10-01T06:53:23.652Z,9.30
2018-10-01T06:54:23.557Z,9.70
2018-10-01T06:55:23.458Z,7.30
2018-10-01T06:56:23.375Z,10.60
2018-10-01T06:57:23.295Z,9.80
2018-10-01T06:58:23.247Z,6.90
2018-10-01T06:59:23.136Z,10.50
2018-10-01T07:00:23.057Z,7.40
2018-10-01T07:01:23.055Z,12.20
2018-10-01T07:02:22.888Z,7.70
2018-10-01T07:03:22.825Z,10.80
2018-10-01T07:04:22.751Z,7.50
2018-10-01T07:05:22.669Z,6.30
2018-10-01T07:08:04.827Z,7.00
2018-10-01T07:09:05.732Z,8.80
2018-10-01T07:10:04.619Z,6.60
2018-10-01T07:11:04.562Z,10.40
2018-10-01T07:12:04.454Z,7.70
2018-10-01T07:13:04.409Z,6.90
2018-10-01T07:14:04.315Z,9.00
2018-10-01T07:15:04.224Z,8.00
2018-10-01T07:16:04.129Z,9.30
2018-10-01T07:18:46.305Z,6.20
2018-10-01T07:19:46.220Z,8.20
2018-10-01T07:20:46.136Z,10.50
2018-10-01T07:21:46.050Z,6.40
2018-10-01T07:22:45.984Z,6.90
2018-10-01T07:23:46.916Z,6.00
2018-10-01T07:24:45.804Z,5.60
2018-10-01T07:25:45.735Z,5.20
2018-10-01T07:26:45.649Z,7.30
2018-10-01T07:27:45.580Z,7.40
2018-10-01T07:28:45.518Z,6.80
2018-10-01T07:29:45.408Z,7.10
2018-10-01T07:30:45.323Z,7.20
2018-10-01T07:33:27.291Z,5.30
2018-10-01T07:34:27.231Z,6.70
2018-10-01T07:35:27.126Z,4.90
2018-10-01T07:36:27.051Z,5.30
2018-10-01T07:37:26.974Z,7.00
2018-10-01T07:38:26.909Z,6.50
2018-10-01T07:39:26.841Z,7.10
2018-10-01T07:40:26.809Z,5.50
2018-10-01T07:41:26.645Z,6.10
2018-10-01T07:42:26.579Z,5.20
2018-10-01T07:43:26.485Z,7.00
2018-10-01T07:44:26.406Z,4.80
2018-10-01T07:45:26.421Z,8.90
2018-10-01T07:46:26.256Z,7.50
2018-10-01T07:47:26.172Z,6.50
2018-10-01T07:48:26.097Z,5.90
2018-10-01T07:49:26.023Z,5.20
2018-10-01T07:50:25.964Z,6.40
2018-10-01T07:51:25.850Z,5.60
2018-10-01T07:52:25.835Z,5.00
2018-10-01T07:53:25.711Z,5.60
2018-10-01T07:56:07.815Z,5.20
2018-10-01T07:58:49.793Z,5.40
2018-10-01T07:59:49.752Z,4.20
2018-10-01T08:00:49.662Z,7.40
2018-10-01T08:01:49.575Z,4.20
2018-10-01T08:02:49.555Z,4.10
2018-10-01T08:03:49.414Z,4.50
2018-10-01T08:04:49.314Z,4.20
2018-10-01T08:05:50.435Z,5.10
2018-10-01T08:06:49.166Z,5.70
2018-10-01T08:07:49.117Z,3.90
2018-10-01T08:08:49.009Z,4.80
2018-10-01T08:11:31.327Z,5.60
2018-10-01T08:12:31.246Z,4.40
2018-10-01T08:13:31.136Z,5.30
2018-10-01T08:14:31.106Z,5.60
2018-10-01T08:15:31.033Z,3.40
2018-10-01T08:16:30.939Z,4.00
2018-10-01T08:17:30.843Z,6.10
2018-10-01T08:18:30.765Z,6.80
2018-10-01T08:19:30.687Z,3.90
2018-10-01T08:20:30.640Z,4.60
2018-10-01T08:21:30.552Z,5.00
2018-10-01T08:22:30.460Z,6.10
2018-10-01T08:23:30.405Z,5.80
2018-10-01T08:24:30.323Z,6.50
2018-10-01T08:25:30.221Z,5.00
2018-10-01T08:26:30.216Z,4.70
2018-10-01T08:27:30.064Z,6.00
2018-10-01T08:28:30.050Z,6.40
2018-10-01T08:29:30.015Z,3.70
2018-10-01T08:30:29.917Z,4.40
2018-10-01T08:31:29.807Z,5.60
2018-10-01T08:32:29.771Z,5.40
2018-10-01T08:33:29.605Z,8.30
2018-10-01T08:34:29.551Z,5.90
2018-10-01T08:35:29.603Z,5.70
2018-10-01T08:36:29.380Z,5.40
2018-10-01T08:37:29.351Z,6.40
2018-10-01T08:38:29.312Z,6.10
2018-10-01T08:39:29.157Z,6.70
2018-10-01T08:40:29.100Z,5.00
2018-10-01T08:41:29.049Z,5.20
2018-10-01T08:42:29.032Z,6.70
2018-10-01T08:43:28.836Z,7.50
2018-10-01T08:44:28.793Z,5.80
2018-10-01T08:45:28.692Z,5.70
2018-10-01T08:46:28.630Z,8.50
2018-10-01T08:47:28.612Z,7.30
2018-10-01T08:50:10.891Z,6.30
2018-10-01T08:52:52.837Z,6.00
2018-10-01T08:53:52.792Z,5.70
2018-10-01T08:54:52.660Z,7.70
2018-10-01T08:57:34.844Z,4.90
2018-10-01T08:58:34.750Z,4.60
2018-10-01T08:59:34.785Z,5.70
2018-10-01T09:00:34.592Z,4.00
2018-10-01T09:01:34.507Z,4.60
2018-10-01T09:02:35.667Z,5.00
2018-10-01T09:03:34.352Z,4.00
2018-10-01T09:06:16.324Z,4.40
2018-10-01T09:07:16.244Z,5.70
2018-10-01T09:08:16.290Z,4.80
2018-10-01T09:09:16.120Z,3.50
2018-10-01T09:10:16.008Z,4.10
2018-10-01T09:11:16.022Z,5.20
2018-10-01T09:12:15.855Z,4.50
2018-10-01T09:13:16.795Z,3.50
2018-10-01T09:14:15.757Z,3.50
2018-10-01T09:16:57.839Z,4.60
2018-10-01T09:17:57.747Z,2.50
2018-10-01T09:18:57.702Z,4.80
2018-10-01T09:19:57.626Z,4.50
2018-10-01T09:20:57.505Z,6.00
2018-10-01T09:21:57.436Z,6.90
2018-10-01T09:22:57.362Z,5.50
2018-10-01T09:23:57.310Z,6.80
2018-10-01T09:24:57.234Z,5.10
2018-10-01T09:25:57.127Z,6.50
2018-10-01T09:26:57.050Z,6.70
2018-10-01T09:27:56.971Z,4.80
2018-10-01T09:28:56.957Z,7.80
2018-10-01T09:29:56.837Z,4.30
2018-10-01T09:30:56.748Z,4.50
2018-10-01T09:31:56.684Z,4.50
2018-10-01T09:32:56.608Z,5.50
2018-10-01T09:33:56.508Z,6.20
2018-10-01T09:34:56.462Z,5.40
2018-10-01T09:35:56.378Z,4.70
2018-10-01T09:36:56.281Z,6.10
2018-10-01T09:37:56.229Z,4.30
2018-10-01T09:38:56.107Z,5.20
2018-10-01T09:39:56.113Z,5.30
2018-10-01T09:40:55.963Z,5.90
2018-10-01T09:41:55.892Z,5.80
2018-10-01T09:42:55.830Z,6.00
2018-10-01T09:43:55.797Z,5.20
2018-10-01T09:44:55.682Z,7.00
2018-10-01T09:45:57.634Z,4.60
2018-10-01T09:46:55.511Z,7.20
2018-10-01T09:47:55.481Z,6.60
2018-10-01T09:48:55.353Z,5.90
2018-10-01T09:49:56.311Z,5.40
2018-10-01T09:50:55.195Z,5.50
2018-10-01T09:51:55.180Z,7.90
2018-10-01T09:52:55.057Z,5.80
2018-10-01T09:53:54.968Z,6.40
2018-10-01T09:54:54.919Z,5.40
2018-10-01T09:55:54.824Z,9.60
2018-10-01T09:56:54.757Z,5.20
2018-10-01T09:59:36.857Z,5.50
2018-10-01T10:00:36.792Z,4.00
2018-10-01T10:01:36.680Z,7.70
2018-10-01T10:02:36.669Z,6.60
2018-10-01T10:03:36.530Z,4.60
2018-10-01T10:04:36.544Z,4.50
2018-10-01T10:05:36.398Z,4.40
2018-10-01T10:06:36.304Z,6.10
2018-10-01T10:07:36.223Z,4.80
2018-10-01T10:08:36.223Z,6.90
2018-10-01T10:09:36.054Z,4.00
2018-10-01T10:10:37.046Z,3.60
2018-10-01T10:11:35.913Z,7.10
2018-10-01T10:14:17.942Z,6.30
2018-10-01T10:15:17.782Z,4.10
2018-10-01T10:16:17.860Z,4.50
2018-10-01T10:17:17.685Z,4.70
2018-10-01T10:18:17.550Z,4.20
2018-10-01T10:19:17.471Z,6.50
2018-10-01T10:20:17.414Z,5.70
2018-10-01T10:21:17.349Z,4.50
2018-10-01T10:22:17.262Z,4.70
2018-10-01T10:24:59.358Z,6.50
2018-10-01T10:25:59.401Z,5.80
2018-10-01T10:26:59.247Z,4.70
2018-10-01T10:29:41.348Z,5.20
2018-10-01T10:30:41.291Z,3.00
2018-10-01T10:31:41.224Z,4.40
2018-10-01T10:32:41.128Z,7.20
2018-10-01T10:33:41.063Z,6.80
2018-10-01T10:34:40.977Z,5.70
2018-10-01T10:35:40.872Z,4.90
2018-10-01T10:36:41.014Z,5.50
2018-10-01T10:37:40.770Z,4.90
2018-10-01T10:40:22.861Z,5.50
2018-10-01T10:43:04.892Z,5.50
2018-10-01T10:44:04.853Z,5.20
2018-10-01T10:45:04.700Z,4.40
2018-10-01T10:46:04.636Z,7.40
2018-10-01T10:47:04.591Z,6.60
2018-10-01T10:48:04.527Z,4.20
2018-10-01T10:49:04.388Z,5.40
2018-10-01T10:51:46.493Z,6.90
2018-10-01T10:52:46.621Z,4.60
2018-10-01T10:53:46.216Z,3.80
2018-10-01T10:54:46.381Z,5.50
2018-10-01T10:55:46.045Z,6.10
2018-10-01T10:56:46.220Z,5.60
2018-10-01T10:57:45.898Z,8.20
2018-10-01T10:58:45.812Z,6.90
2018-10-01T10:59:45.714Z,5.80
2018-10-01T11:00:45.682Z,4.40
2018-10-01T11:01:45.586Z,7.30
2018-10-01T11:02:45.541Z,4.90
2018-10-01T11:03:45.412Z,2.50
2018-10-01T11:04:45.341Z,3.60
2018-10-01T11:05:45.263Z,2.10
2018-10-01T11:06:45.173Z,3.00
2018-10-01T11:07:45.103Z,2.80
2018-10-01T11:08:45.013Z,3.10
2018-10-01T11:09:44.938Z,3.90
2018-10-01T11:12:26.875Z,5.00
2018-10-01T11:13:27.869Z,4.10
2018-10-01T11:14:26.864Z,5.30
2018-10-01T11:15:26.698Z,3.50
2018-10-01T11:16:26.564Z,3.30
2018-10-01T11:17:26.530Z,3.80
2018-10-01T11:18:26.477Z,3.50
2018-10-01T11:19:26.402Z,3.70
2018-10-01T11:20:26.491Z,3.00
2018-10-01T11:21:26.224Z,5.20
2018-10-01T11:22:26.074Z,4.70
2018-10-01T11:23:26.202Z,3.90
2018-10-01T11:24:25.917Z,3.00
2018-10-01T11:27:07.929Z,5.60
2018-10-01T11:28:07.818Z,3.30
2018-10-01T11:29:07.806Z,4.40
2018-10-01T11:31:50.011Z,4.90
2018-10-01T11:32:49.925Z,8.20
2018-10-01T11:33:49.943Z,14.90
2018-10-01T11:34:50.012Z,11.70
2018-10-01T11:35:50.473Z,13.20
2018-10-01T11:36:49.499Z,7.30
2018-10-01T11:37:49.442Z,10.50
2018-10-01T11:38:50.409Z,8.80
2018-10-01T11:39:49.339Z,8.60
2018-10-01T11:40:50.163Z,4.30
2018-10-01T11:41:49.078Z,7.60
2018-10-01T11:42:49.000Z,9.30
2018-10-01T11:43:48.991Z,5.50
2018-10-01T11:44:48.847Z,4.20
2018-10-01T11:45:48.852Z,2.70
2018-10-01T11:46:48.685Z,3.40
2018-10-01T11:47:48.624Z,2.50
2018-10-01T11:50:30.922Z,3.10
2018-10-01T11:53:12.886Z,3.70
2018-10-01T11:54:12.895Z,4.80
2018-10-01T11:55:12.721Z,5.40
2018-10-01T11:56:12.638Z,4.30
2018-10-01T11:57:12.638Z,3.70
2018-10-01T11:59:54.430Z,4.00
2018-10-01T12:00:54.327Z,4.70
2018-10-01T12:01:54.250Z,4.00
2018-10-01T12:02:54.142Z,5.40
2018-10-01T12:03:54.106Z,3.90
2018-10-01T12:04:54.022Z,3.90
2018-10-01T12:05:53.894Z,6.60
2018-10-01T12:06:53.829Z,3.50
2018-10-01T12:07:53.737Z,5.60
2018-10-01T12:08:53.671Z,5.60
2018-10-01T12:09:53.759Z,4.70
2018-10-01T12:10:53.522Z,5.50
2018-10-01T12:11:53.429Z,5.20
2018-10-01T12:14:35.422Z,5.50
2018-10-01T12:15:35.357Z,6.90
2018-10-01T12:16:35.225Z,7.10
2018-10-01T12:17:35.156Z,7.80
2018-10-01T12:18:35.072Z,5.70
2018-10-01T12:19:35.011Z,5.80
2018-10-01T12:20:34.911Z,6.20
2018-10-01T12:21:34.907Z,7.80
2018-10-01T12:22:34.737Z,6.10
2018-10-01T12:23:34.669Z,5.30
2018-10-01T12:24:34.589Z,7.90
2018-10-01T12:25:34.519Z,6.70
2018-10-01T12:26:34.419Z,7.00
2018-10-01T12:27:34.437Z,5.50
2018-10-01T12:28:34.253Z,5.20
2018-10-01T12:31:16.411Z,6.70
2018-10-01T12:32:16.333Z,6.00
2018-10-01T12:33:16.289Z,5.80
2018-10-01T12:34:16.161Z,8.50
2018-10-01T12:35:16.091Z,7.80
2018-10-01T12:36:16.023Z,7.60
2018-10-01T12:37:15.914Z,8.10
2018-10-01T12:38:15.840Z,9.10
2018-10-01T12:39:15.865Z,6.70
2018-10-01T12:40:15.711Z,9.90
2018-10-01T12:41:15.602Z,9.00
2018-10-01T12:42:15.556Z,8.40
2018-10-01T12:43:15.419Z,8.50
2018-10-01T12:44:15.376Z,7.10
2018-10-01T12:45:15.377Z,8.80
2018-10-01T12:46:16.345Z,5.60
2018-10-01T12:47:15.100Z,6.10
2018-10-01T12:49:57.388Z,8.30
2018-10-01T12:50:57.385Z,7.30
2018-10-01T12:51:57.234Z,8.40
2018-10-01T12:52:57.173Z,7.20
2018-10-01T12:53:57.088Z,9.70
2018-10-01T12:56:38.926Z,6.90
2018-10-01T12:57:38.897Z,10.30
2018-10-01T12:58:38.757Z,7.30
2018-10-01T12:59:38.717Z,6.40
2018-10-01T13:00:38.573Z,6.40
2018-10-01T13:01:38.540Z,6.60
2018-10-01T13:02:38.421Z,8.40
2018-10-01T13:03:38.373Z,8.00
2018-10-01T13:04:38.248Z,7.20
2018-10-01T13:05:38.195Z,6.90
2018-10-01T13:06:38.169Z,7.00
2018-10-01T13:09:20.406Z,5.60
2018-10-01T13:10:20.324Z,6.00
2018-10-01T13:11:20.251Z,6.60
2018-10-01T13:12:20.279Z,5.20
2018-10-01T13:13:20.088Z,6.90
2018-10-01T13:14:20.031Z,7.50
2018-10-01T13:15:19.928Z,5.00
2018-10-01T13:16:19.838Z,6.90
2018-10-01T13:17:19.786Z,6.10
2018-10-01T13:18:19.852Z,4.80
2018-10-01T13:19:19.594Z,9.50
2018-10-01T13:20:19.526Z,6.00
2018-10-01T13:21:19.429Z,6.40
2018-10-01T13:22:19.417Z,5.50
2018-10-01T13:23:19.265Z,6.00
2018-10-01T13:26:01.403Z,5.40
2018-10-01T13:28:43.461Z,5.80
2018-10-01T13:29:43.330Z,6.80
2018-10-01T13:30:43.312Z,7.40
2018-10-01T13:33:25.431Z,5.70
2018-10-01T13:34:25.333Z,8.30
2018-10-01T13:35:25.248Z,8.90
2018-10-01T13:36:25.196Z,6.00
2018-10-01T13:37:25.089Z,9.00
2018-10-01T13:38:25.063Z,7.20
2018-10-01T13:39:24.926Z,8.80
2018-10-01T13:42:06.933Z,9.00
2018-10-01T13:43:07.868Z,7.10
2018-10-01T13:44:06.749Z,9.10
2018-10-01T13:46:48.914Z,10.80
2018-10-01T13:47:48.873Z,10.10
2018-10-01T13:48:48.902Z,10.90
2018-10-01T13:49:48.682Z,10.70
2018-10-01T13:50:48.584Z,9.30
2018-10-01T13:51:48.544Z,13.40
2018-10-01T13:52:48.438Z,11.00
2018-10-01T13:53:49.371Z,11.20
2018-10-01T13:54:48.270Z,12.00
2018-10-01T13:55:48.201Z,12.30
2018-10-01T13:56:48.097Z,9.00
2018-10-01T13:57:48.061Z,9.20
2018-10-01T13:58:47.978Z,11.30
2018-10-01T13:59:47.870Z,12.50
2018-10-01T14:00:47.787Z,9.10
2018-10-01T14:01:47.812Z,12.00
2018-10-01T14:02:47.644Z,9.90
2018-10-01T14:03:47.596Z,10.90
2018-10-01T14:04:47.502Z,11.10
2018-10-01T14:05:47.392Z,11.50
2018-10-01T14:06:47.297Z,10.80
2018-10-01T14:07:47.315Z,13.10
2018-10-01T14:08:47.205Z,12.20
2018-10-01T14:09:47.071Z,8.70
2018-10-01T14:10:46.975Z,8.20
2018-10-01T14:13:29.095Z,10.30
2018-10-01T14:14:28.869Z,12.70
2018-10-01T14:15:28.760Z,10.80
2018-10-01T14:16:28.674Z,12.20
2018-10-01T14:17:28.593Z,9.70
2018-10-01T14:18:28.512Z,10.80
2018-10-01T14:19:28.466Z,8.80
2018-10-01T14:20:28.352Z,9.80
2018-10-01T14:21:28.293Z,10.60
2018-10-01T14:22:28.194Z,16.00
2018-10-01T14:23:28.119Z,9.10
2018-10-01T14:24:29.186Z,15.20
2018-10-01T14:25:28.011Z,9.20
2018-10-01T14:28:09.933Z,8.90
2018-10-01T14:29:09.842Z,9.20
2018-10-01T14:30:09.794Z,6.30
2018-10-01T14:31:09.927Z,8.80
2018-10-01T14:32:09.618Z,7.00
2018-10-01T14:33:09.531Z,6.50
2018-10-01T14:34:09.443Z,9.10
2018-10-01T14:35:10.397Z,6.00
2018-10-01T14:36:09.435Z,7.20
2018-10-01T14:37:09.198Z,9.30
2018-10-01T14:38:09.106Z,9.90
2018-10-01T14:40:51.480Z,8.90
2018-10-01T14:43:33.423Z,8.90
2018-10-01T14:44:33.342Z,13.40
2018-10-01T14:45:33.281Z,9.20
2018-10-01T14:46:33.185Z,9.20
2018-10-01T14:47:33.102Z,9.50
2018-10-01T14:50:14.957Z,12.10
2018-10-01T14:51:14.937Z,11.50
2018-10-01T14:52:14.771Z,11.80
2018-10-01T14:53:14.728Z,9.80
2018-10-01T14:54:14.650Z,10.00
2018-10-01T14:55:14.566Z,9.30
2018-10-01T14:56:14.461Z,9.90
2018-10-01T14:57:14.368Z,9.20
2018-10-01T14:58:14.384Z,10.10
2018-10-01T14:59:14.201Z,11.00
2018-10-01T15:00:14.269Z,9.80
2018-10-01T15:01:14.092Z,11.90
2018-10-01T15:02:13.988Z,11.10
2018-10-01T15:03:13.883Z,10.40
2018-10-01T15:04:13.804Z,10.40
2018-10-01T15:05:13.739Z,10.40
2018-10-01T15:06:13.707Z,14.50
2018-10-01T15:07:13.572Z,10.90
2018-10-01T15:08:13.495Z,10.60
2018-10-01T15:10:55.492Z,11.00
2018-10-01T15:11:55.440Z,10.80
2018-10-01T15:12:55.266Z,10.80
2018-10-01T15:13:55.207Z,10.20
2018-10-01T15:14:55.098Z,11.90
2018-10-01T15:15:55.029Z,10.20
2018-10-01T15:16:55.019Z,7.40
2018-10-01T15:17:54.918Z,9.50
2018-10-01T15:18:54.794Z,9.90
2018-10-01T15:19:54.738Z,11.80
2018-10-01T15:20:54.630Z,11.10
2018-10-01T15:21:54.582Z,11.50
2018-10-01T15:22:54.498Z,9.80
2018-10-01T15:23:54.418Z,11.50
2018-10-01T15:24:54.299Z,9.80
2018-10-01T15:27:36.460Z,9.40
2018-10-01T15:30:18.460Z,8.80
2018-10-01T15:33:00.466Z,12.00
2018-10-01T15:34:00.377Z,11.70
2018-10-01T15:35:00.299Z,11.50
2018-10-01T15:37:42.471Z,10.80
2018-10-01T15:40:24.466Z,12.20